CAL520 RCSS-ZHCC
Flight info
| Callsign | CAL520 |
|---|---|
| Flight time | N/A |
| Altitude | 34000 |
| Route | RCSS PIAN1J PIANO L3 VIOLA R596 DST V143 SAPIN W95 UPLEL R343 HFE B208 FYG W596 UNTEL UNT10U CGO |
| Aircraft | B738/M-V/N |
Departure
| Time | N/A |
|---|---|
| Airport | Taipei Songshan International Airport (RCSS) |
Arrival
| Time | 2026-04-25 23:13 |
|---|---|
| Airport | Zhengzhou Xinzheng International Airport (ZHCC) |
| Time | Latitude | Longitude | Altitude | Speed | Heading |
|---|---|---|---|---|---|
| 2026-04-25 22:36 | 32.39916 | 116.42464 | 33961 ft | 430 kts | 306° |
| 2026-04-25 22:36 | 32.41790 | 116.39756 | 33959 ft | 429 kts | 306° |
| 2026-04-25 22:37 | 32.45577 | 116.34277 | 33962 ft | 429 kts | 305° |
| 2026-04-25 22:37 | 32.49353 | 116.28801 | 33968 ft | 430 kts | 305° |
| 2026-04-25 22:38 | 32.53149 | 116.23288 | 33968 ft | 430 kts | 305° |
| 2026-04-25 22:38 | 32.56907 | 116.17826 | 33968 ft | 430 kts | 306° |
| 2026-04-25 22:39 | 32.60731 | 116.12361 | 33966 ft | 430 kts | 306° |
| 2026-04-25 22:39 | 32.64585 | 116.06887 | 33967 ft | 430 kts | 306° |
| 2026-04-25 22:40 | 32.68399 | 116.01470 | 33968 ft | 431 kts | 306° |
| 2026-04-25 22:40 | 32.72254 | 115.95991 | 33967 ft | 431 kts | 306° |
| 2026-04-25 22:41 | 32.76098 | 115.90523 | 33964 ft | 431 kts | 306° |
| 2026-04-25 22:41 | 32.79917 | 115.85083 | 33966 ft | 432 kts | 306° |
| 2026-04-25 22:42 | 32.83750 | 115.79615 | 33965 ft | 430 kts | 306° |
| 2026-04-25 22:42 | 32.87597 | 115.74121 | 33965 ft | 430 kts | 306° |
| 2026-04-25 22:43 | 32.91497 | 115.68691 | 33963 ft | 432 kts | 307° |
| 2026-04-25 22:43 | 32.91658 | 115.68473 | 33963 ft | 432 kts | 308° |
| 2026-04-25 22:44 | 32.93767 | 115.65615 | 33957 ft | 424 kts | 308° |
| 2026-04-25 22:45 | 32.97636 | 115.60370 | 33969 ft | 426 kts | 307° |
| 2026-04-25 22:45 | 33.01585 | 115.55008 | 33962 ft | 430 kts | 307° |
| 2026-04-25 22:46 | 33.05430 | 115.49790 | 33957 ft | 413 kts | 306° |
| 2026-04-25 22:46 | 33.09182 | 115.44682 | 33964 ft | 409 kts | 306° |
| 2026-04-25 22:47 | 33.12952 | 115.39532 | 33952 ft | 411 kts | 306° |
| 2026-04-25 22:47 | 33.16687 | 115.34427 | 33874 ft | 414 kts | 305° |
| 2026-04-25 22:48 | 33.18614 | 115.31785 | 33295 ft | 423 kts | 306° |
| 2026-04-25 22:48 | 33.20540 | 115.29149 | 32610 ft | 423 kts | 306° |
| 2026-04-25 22:48 | 33.21143 | 115.28323 | 32390 ft | 422 kts | 306° |
| 2026-04-25 22:49 | 33.22396 | 115.26606 | 31899 ft | 422 kts | 306° |
| 2026-04-25 22:49 | 33.24309 | 115.23981 | 31201 ft | 421 kts | 306° |
| 2026-04-25 22:49 | 33.26225 | 115.21353 | 30492 ft | 420 kts | 306° |
| 2026-04-25 22:50 | 33.28156 | 115.18705 | 29972 ft | 414 kts | 306° |
| 2026-04-25 22:50 | 33.30009 | 115.16164 | 29438 ft | 409 kts | 306° |
| 2026-04-25 22:50 | 33.31884 | 115.13590 | 28901 ft | 404 kts | 307° |
| 2026-04-25 22:50 | 33.33726 | 115.11054 | 28362 ft | 400 kts | 307° |
| 2026-04-25 22:51 | 33.35518 | 115.08588 | 27834 ft | 396 kts | 307° |
| 2026-04-25 22:51 | 33.37321 | 115.06104 | 27301 ft | 392 kts | 308° |
| 2026-04-25 22:51 | 33.39107 | 115.03640 | 26771 ft | 388 kts | 308° |
| 2026-04-25 22:51 | 33.40870 | 115.01206 | 26248 ft | 384 kts | 308° |
| 2026-04-25 22:52 | 33.42609 | 114.98802 | 25727 ft | 380 kts | 309° |
| 2026-04-25 22:52 | 33.44324 | 114.96432 | 25213 ft | 376 kts | 309° |
| 2026-04-25 22:52 | 33.46022 | 114.94084 | 24702 ft | 372 kts | 309° |
| 2026-04-25 22:52 | 33.47166 | 114.92501 | 24357 ft | 370 kts | 310° |
| 2026-04-25 22:53 | 33.49383 | 114.89429 | 23688 ft | 366 kts | 310° |
| 2026-04-25 22:53 | 33.51035 | 114.87140 | 23185 ft | 363 kts | 310° |
| 2026-04-25 22:53 | 33.52686 | 114.84849 | 22682 ft | 360 kts | 310° |
| 2026-04-25 22:53 | 33.54321 | 114.82581 | 22183 ft | 357 kts | 310° |
| 2026-04-25 22:54 | 33.55940 | 114.80333 | 21687 ft | 355 kts | 311° |
| 2026-04-25 22:54 | 33.57537 | 114.78113 | 21195 ft | 352 kts | 311° |
| 2026-04-25 22:54 | 33.59132 | 114.75895 | 20704 ft | 350 kts | 311° |
| 2026-04-25 22:54 | 33.60724 | 114.73679 | 20209 ft | 348 kts | 311° |
| 2026-04-25 22:55 | 33.62313 | 114.71467 | 19718 ft | 346 kts | 311° |
| 2026-04-25 22:55 | 33.63862 | 114.69309 | 19235 ft | 345 kts | 311° |
| 2026-04-25 22:55 | 33.65505 | 114.67207 | 18736 ft | 343 kts | 316° |
| 2026-04-25 22:55 | 33.67269 | 114.65269 | 18245 ft | 342 kts | 320° |
| 2026-04-25 22:56 | 33.69082 | 114.63473 | 17763 ft | 341 kts | 322° |
| 2026-04-25 22:56 | 33.70951 | 114.61729 | 17276 ft | 339 kts | 323° |
| 2026-04-25 22:56 | 33.72846 | 114.60020 | 16789 ft | 338 kts | 324° |
| 2026-04-25 22:56 | 33.74707 | 114.58370 | 16311 ft | 337 kts | 324° |
| 2026-04-25 22:57 | 33.76613 | 114.56698 | 15823 ft | 336 kts | 324° |
| 2026-04-25 22:57 | 33.78501 | 114.55047 | 15338 ft | 336 kts | 324° |
| 2026-04-25 22:57 | 33.80386 | 114.53400 | 14856 ft | 335 kts | 324° |
| 2026-04-25 22:57 | 33.82250 | 114.51771 | 14374 ft | 334 kts | 324° |
| 2026-04-25 22:58 | 33.84135 | 114.50124 | 13887 ft | 334 kts | 324° |
| 2026-04-25 22:58 | 33.86004 | 114.48491 | 13403 ft | 333 kts | 324° |
| 2026-04-25 22:58 | 33.87897 | 114.46835 | 12912 ft | 333 kts | 324° |
| 2026-04-25 22:58 | 33.89737 | 114.45225 | 12432 ft | 332 kts | 324° |
| 2026-04-25 22:59 | 33.91613 | 114.43582 | 11944 ft | 332 kts | 324° |
| 2026-04-25 22:59 | 33.93477 | 114.41949 | 11487 ft | 331 kts | 324° |
| 2026-04-25 22:59 | 33.95325 | 114.40329 | 11043 ft | 329 kts | 324° |
| 2026-04-25 22:59 | 33.97172 | 114.38708 | 10815 ft | 320 kts | 324° |
| 2026-04-25 23:00 | 33.98941 | 114.37155 | 10638 ft | 311 kts | 324° |
| 2026-04-25 23:00 | 34.00663 | 114.35644 | 10437 ft | 303 kts | 324° |
| 2026-04-25 23:00 | 34.02351 | 114.34161 | 10231 ft | 297 kts | 323° |
| 2026-04-25 23:00 | 34.03984 | 114.32724 | 10029 ft | 291 kts | 323° |
| 2026-04-25 23:01 | 34.05077 | 114.31763 | 9844 ft | 289 kts | 323° |
| 2026-04-25 23:01 | 34.07249 | 114.29851 | 9353 ft | 290 kts | 323° |
| 2026-04-25 23:01 | 34.08863 | 114.28429 | 9000 ft | 290 kts | 323° |
| 2026-04-25 23:01 | 34.10496 | 114.26992 | 8644 ft | 290 kts | 323° |
| 2026-04-25 23:02 | 34.12136 | 114.25547 | 8277 ft | 288 kts | 323° |
| 2026-04-25 23:02 | 34.13727 | 114.24147 | 7934 ft | 281 kts | 323° |
| 2026-04-25 23:02 | 34.15291 | 114.22770 | 7592 ft | 275 kts | 323° |
| 2026-04-25 23:02 | 34.16805 | 114.21439 | 7260 ft | 270 kts | 323° |
| 2026-04-25 23:03 | 34.18313 | 114.20116 | 6930 ft | 265 kts | 323° |
| 2026-04-25 23:03 | 34.19793 | 114.18815 | 6605 ft | 261 kts | 323° |
| 2026-04-25 23:03 | 34.21253 | 114.17536 | 6287 ft | 257 kts | 323° |
| 2026-04-25 23:03 | 34.22689 | 114.16280 | 5972 ft | 253 kts | 323° |
| 2026-04-25 23:04 | 34.24103 | 114.15045 | 5660 ft | 250 kts | 323° |
| 2026-04-25 23:04 | 34.25045 | 114.14223 | 5487 ft | 246 kts | 323° |
| 2026-04-25 23:04 | 34.26835 | 114.12656 | 5337 ft | 232 kts | 323° |
| 2026-04-25 23:04 | 34.28110 | 114.11540 | 5216 ft | 223 kts | 323° |
| 2026-04-25 23:05 | 34.29332 | 114.10467 | 5135 ft | 207 kts | 323° |
| 2026-04-25 23:05 | 34.30460 | 114.09491 | 4963 ft | 193 kts | 326° |
| 2026-04-25 23:05 | 34.31685 | 114.08788 | 4852 ft | 200 kts | 342° |
| 2026-04-25 23:05 | 34.33136 | 114.08549 | 4748 ft | 224 kts | 1° |
| 2026-04-25 23:06 | 34.34633 | 114.08939 | 4580 ft | 219 kts | 22° |
| 2026-04-25 23:06 | 34.36015 | 114.09660 | 4493 ft | 219 kts | 23° |
| 2026-04-25 23:06 | 34.37434 | 114.10394 | 4367 ft | 222 kts | 22° |
| 2026-04-25 23:06 | 34.38839 | 114.11111 | 4239 ft | 221 kts | 22° |
| 2026-04-25 23:07 | 34.40248 | 114.11826 | 4110 ft | 213 kts | 22° |
| 2026-04-25 23:07 | 34.41649 | 114.12262 | 3964 ft | 202 kts | 4° |
| 2026-04-25 23:07 | 34.42977 | 114.12048 | 3826 ft | 189 kts | 339° |
| 2026-04-25 23:07 | 34.44099 | 114.11309 | 3676 ft | 179 kts | 319° |
| 2026-04-25 23:08 | 34.44904 | 114.10210 | 3534 ft | 172 kts | 302° |
| 2026-04-25 23:08 | 34.45464 | 114.08975 | 3570 ft | 164 kts | 295° |
| 2026-04-25 23:08 | 34.45934 | 114.07669 | 3475 ft | 174 kts | 292° |
| 2026-04-25 23:08 | 34.46389 | 114.06326 | 3343 ft | 172 kts | 292° |
| 2026-04-25 23:09 | 34.46843 | 114.04977 | 3213 ft | 172 kts | 292° |
| 2026-04-25 23:09 | 34.47297 | 114.03634 | 3084 ft | 171 kts | 292° |
| 2026-04-25 23:09 | 34.47743 | 114.02315 | 2960 ft | 171 kts | 292° |
| 2026-04-25 23:09 | 34.48196 | 114.00980 | 2835 ft | 170 kts | 292° |
| 2026-04-25 23:10 | 34.48639 | 113.99675 | 2623 ft | 158 kts | 292° |
| 2026-04-25 23:10 | 34.49034 | 113.98510 | 2475 ft | 150 kts | 292° |
| 2026-04-25 23:10 | 34.49438 | 113.97323 | 2289 ft | 153 kts | 292° |
| 2026-04-25 23:10 | 34.49841 | 113.96137 | 2079 ft | 150 kts | 292° |
| 2026-04-25 23:11 | 34.50233 | 113.94984 | 1888 ft | 149 kts | 292° |
| 2026-04-25 23:11 | 34.50629 | 113.93823 | 1691 ft | 149 kts | 292° |
| 2026-04-25 23:11 | 34.51024 | 113.92660 | 1492 ft | 149 kts | 292° |
| 2026-04-25 23:11 | 34.51415 | 113.91511 | 1293 ft | 148 kts | 292° |
| 2026-04-25 23:12 | 34.51807 | 113.90344 | 998 ft | 149 kts | 292° |
| 2026-04-25 23:12 | 34.52198 | 113.89195 | 721 ft | 146 kts | 292° |
| 2026-04-25 23:12 | 34.52585 | 113.88058 | 579 ft | 144 kts | 293° |
| 2026-04-25 23:12 | 34.52975 | 113.86932 | 508 ft | 138 kts | 292° |
| 2026-04-25 23:13 | 34.53246 | 113.86137 | 506 ft | 67 kts | 292° |
| 2026-04-25 23:13 | 34.53357 | 113.85812 | 506 ft | 20 kts | 292° |
| 2026-04-25 23:13 | 34.53421 | 113.85619 | 506 ft | 27 kts | 292° |
| 2026-04-25 23:13 | 34.53460 | 113.85408 | 506 ft | 24 kts | 272° |
| 2026-04-25 23:14 | 34.53461 | 113.85295 | 506 ft | 1 kts | 269° |
| 2026-04-25 23:14 | 34.53460 | 113.85289 | 506 ft | 2 kts | 269° |
| 2026-04-25 23:14 | 34.53439 | 113.85197 | 506 ft | 15 kts | 225° |
| 2026-04-25 23:14 | 34.53368 | 113.85226 | 506 ft | 11 kts | 133° |
| 2026-04-25 23:15 | 34.53301 | 113.85228 | 506 ft | 10 kts | 199° |
| 2026-04-25 23:15 | 34.53214 | 113.85188 | 506 ft | 16 kts | 202° |
| 2026-04-25 23:15 | 34.53114 | 113.85138 | 506 ft | 14 kts | 202° |
| 2026-04-25 23:15 | 34.53057 | 113.85111 | 506 ft | 0 kts | 202° |